createdAt,value
2022-08-20T14:37:39.027Z,8
2022-08-20T14:38:53.601Z,11174
2022-08-20T14:40:06.940Z,11202
2022-08-20T14:41:21.241Z,11140
2022-08-20T14:42:35.528Z,10987
2022-08-20T14:43:48.841Z,4050
2022-08-20T14:45:03.068Z,1481
2022-08-20T14:46:17.361Z,614
2022-08-20T14:47:31.610Z,3934
2022-08-20T14:48:45.836Z,2643
2022-08-20T14:50:00.070Z,2604
2022-08-20T14:51:14.304Z,6299
2022-08-20T14:52:28.605Z,2482
2022-08-20T14:53:42.856Z,516
2022-08-20T14:54:57.091Z,4951
2022-08-20T14:56:11.321Z,4138
2022-08-20T14:57:25.546Z,4233
2022-08-20T14:58:39.842Z,4129
2022-08-20T14:59:54.097Z,4106
2022-08-20T15:01:08.330Z,4106
2022-08-20T15:02:22.564Z,1322
2022-08-20T15:03:36.781Z,2942
2022-08-20T15:04:51.098Z,4165
2022-08-20T15:06:05.327Z,4083
2022-08-20T15:07:19.571Z,3596
2022-08-20T15:08:33.807Z,4089
2022-08-20T15:09:48.034Z,4085
2022-08-20T15:12:16.582Z,4119
2022-08-20T15:13:30.806Z,4065
2022-08-20T15:14:45.099Z,4153
2022-08-20T15:15:58.441Z,4209
2022-08-20T15:17:12.721Z,4250
2022-08-20T15:18:26.009Z,4278
2022-08-20T15:19:40.246Z,4298
2022-08-20T15:20:54.548Z,4315
2022-08-20T15:22:08.797Z,4313
2022-08-20T15:23:23.020Z,4077
2022-08-20T15:24:37.265Z,4194
2022-08-20T15:25:51.488Z,4124
2022-08-20T15:27:05.791Z,4223
2022-08-20T15:28:20.036Z,4224
2022-08-20T15:29:34.261Z,4252
2022-08-20T15:30:48.500Z,4309
2022-08-20T15:32:02.735Z,4346
2022-08-20T15:33:17.022Z,4406
2022-08-20T15:34:31.270Z,4461
2022-08-20T15:35:45.511Z,4524
2022-08-20T15:36:59.737Z,4575
2022-08-20T15:38:13.959Z,4579
2022-08-20T15:39:28.276Z,4555
2022-08-20T15:40:42.513Z,4497
2022-08-20T15:44:25.191Z,4302
2022-08-20T15:45:39.505Z,4228
2022-08-20T15:46:53.747Z,4189
2022-08-20T15:48:07.970Z,4128
2022-08-20T15:49:22.267Z,4069
2022-08-20T15:50:35.569Z,4030
2022-08-20T15:51:49.809Z,3950
2022-08-20T15:53:04.044Z,3891
2022-08-20T15:54:18.260Z,3849
2022-08-20T15:55:32.501Z,3846
2022-08-20T15:56:46.809Z,3855
2022-08-20T15:58:01.059Z,3912
2022-08-20T15:59:15.280Z,3986
2022-08-20T16:00:29.508Z,4023
2022-08-20T16:01:43.736Z,4040
2022-08-20T16:02:58.050Z,4065
2022-08-20T16:04:12.299Z,4047
2022-08-20T16:05:26.519Z,4008
2022-08-20T16:06:40.747Z,3926
2022-08-20T16:07:54.978Z,3897
2022-08-20T16:09:09.281Z,3776
2022-08-20T16:10:23.522Z,3623
2022-08-20T16:11:37.754Z,3461
2022-08-20T16:12:51.987Z,3291
2022-08-20T16:14:06.210Z,3223
2022-08-20T16:15:20.523Z,3136
2022-08-20T16:16:34.778Z,3115
2022-08-20T16:17:49.000Z,3100
2022-08-20T16:19:03.231Z,3037
2022-08-20T16:20:17.461Z,2998
2022-08-20T16:21:31.829Z,2823
2022-08-20T16:22:46.101Z,2585
2022-08-20T16:23:59.405Z,2310
2022-08-20T16:25:13.634Z,2190
2022-08-20T16:26:27.932Z,2026
2022-08-20T16:27:42.194Z,1926
2022-08-20T16:28:56.410Z,1841
2022-08-20T16:30:10.658Z,1759
2022-08-20T16:31:24.871Z,1721
2022-08-20T16:32:39.175Z,1626
2022-08-20T16:33:53.434Z,1524
2022-08-20T16:35:07.654Z,1426
2022-08-20T16:36:21.898Z,1322
2022-08-20T16:37:36.123Z,1278
2022-08-20T16:38:50.426Z,1173
2022-08-20T16:40:04.663Z,1082
2022-08-20T16:41:18.908Z,1030
2022-08-20T16:42:33.128Z,999
2022-08-20T16:43:47.370Z,986
2022-08-20T16:45:01.655Z,956
2022-08-20T16:46:15.898Z,921
2022-08-20T16:47:30.135Z,909
2022-08-20T16:48:44.357Z,896
2022-08-20T16:49:58.603Z,902
2022-08-20T16:51:12.894Z,910
2022-08-20T16:52:27.138Z,928
2022-08-20T16:53:41.374Z,942
2022-08-20T16:54:55.658Z,967
2022-08-20T16:56:09.010Z,975
2022-08-20T16:57:23.288Z,988
2022-08-20T16:58:36.593Z,986
2022-08-20T16:59:50.815Z,971
2022-08-20T17:01:05.122Z,932
2022-08-20T17:02:19.373Z,905
2022-08-20T17:03:33.590Z,870
2022-08-20T17:04:47.836Z,837
2022-08-20T17:06:02.070Z,814
2022-08-20T17:07:16.367Z,779
2022-08-20T17:08:30.604Z,744
2022-08-20T17:09:44.846Z,737
2022-08-20T17:10:59.065Z,745
2022-08-20T17:12:13.306Z,747
2022-08-20T17:13:27.605Z,779
2022-08-20T17:14:41.849Z,822
2022-08-20T17:15:56.084Z,852
2022-08-20T17:17:10.309Z,897
2022-08-20T17:18:24.529Z,914
2022-08-20T17:19:38.841Z,972
2022-08-20T17:20:53.082Z,1001
2022-08-20T17:22:07.310Z,1009
2022-08-20T17:23:21.546Z,989
2022-08-20T17:24:35.769Z,983
2022-08-20T17:25:50.088Z,960
2022-08-20T17:27:04.329Z,929
2022-08-20T17:28:18.557Z,899
2022-08-20T17:29:32.852Z,871
2022-08-20T17:30:46.187Z,858
2022-08-20T17:32:00.462Z,823
2022-08-20T17:33:13.765Z,783
2022-08-20T17:34:28.000Z,765
2022-08-20T17:35:42.000Z,719
2022-08-20T17:36:56.538Z,684
2022-08-20T17:38:10.769Z,655
2022-08-20T17:39:25.011Z,638
2022-08-20T17:40:39.233Z,623
2022-08-20T17:41:53.543Z,615
2022-08-20T17:43:07.784Z,608
2022-08-20T17:44:22.008Z,620
2022-08-20T17:45:36.236Z,634
2022-08-20T17:46:50.468Z,637
2022-08-20T17:48:04.779Z,690
2022-08-20T17:49:19.016Z,699
2022-08-20T17:50:33.261Z,720
2022-08-20T17:51:47.493Z,767
2022-08-20T17:53:01.725Z,747
2022-08-20T17:54:16.016Z,790
2022-08-20T17:55:30.259Z,817
2022-08-20T17:56:44.499Z,855
2022-08-20T17:57:58.719Z,883
2022-08-20T17:59:12.957Z,902
2022-08-20T18:00:27.255Z,871
2022-08-20T18:01:41.493Z,811
2022-08-20T18:02:55.735Z,764
2022-08-20T18:04:10.023Z,726
2022-08-20T18:05:23.325Z,705
2022-08-20T18:06:37.575Z,640
2022-08-20T18:07:51.805Z,555
2022-08-20T18:09:06.038Z,502
2022-08-20T18:10:20.261Z,482
2022-08-20T18:11:34.554Z,464
2022-08-20T18:12:48.809Z,434
2022-08-20T18:14:03.040Z,396
2022-08-20T18:15:17.273Z,351
2022-08-20T18:16:31.494Z,320
2022-08-20T18:17:45.798Z,289
2022-08-20T18:19:00.046Z,265
2022-08-20T18:20:14.275Z,244
2022-08-20T18:21:28.507Z,224
2022-08-20T18:22:42.726Z,209
2022-08-20T18:23:57.045Z,194
2022-08-20T18:25:11.288Z,179
2022-08-20T18:26:25.512Z,159
2022-08-20T18:27:39.749Z,136
2022-08-20T18:28:53.966Z,121
2022-08-20T18:30:08.276Z,105
2022-08-20T18:31:22.530Z,93
2022-08-20T18:32:36.756Z,85
2022-08-20T18:33:50.980Z,77
2022-08-20T18:35:05.223Z,73
2022-08-20T18:36:19.585Z,64
2022-08-20T18:37:33.857Z,58
2022-08-20T18:38:47.160Z,49
2022-08-20T18:40:01.390Z,43
2022-08-20T18:41:15.698Z,34
2022-08-20T18:42:29.941Z,26
2022-08-20T18:43:44.166Z,20
2022-08-20T18:44:58.411Z,15
2022-08-20T18:46:12.629Z,12
2022-08-20T18:47:26.931Z,9
2022-08-20T18:48:41.180Z,8
2022-08-20T18:49:55.417Z,6
2022-08-20T18:51:09.633Z,5
2022-08-20T18:52:23.863Z,8
2022-08-20T18:53:38.181Z,3
2022-08-20T18:54:52.424Z,2
2022-08-20T18:56:06.649Z,1
2022-08-20T18:57:20.872Z,3
2022-08-20T18:58:35.114Z,2
2022-08-20T18:59:49.422Z,1
2022-08-20T19:01:03.663Z,2
2022-08-20T19:02:17.878Z,1
2022-08-20T19:03:32.116Z,1
2022-08-20T19:04:46.370Z,2
2022-08-20T19:06:00.654Z,2
2022-08-20T19:07:14.991Z,0
2022-08-20T19:08:29.217Z,2
2022-08-20T19:09:43.503Z,1
2022-08-20T19:10:56.849Z,1
2022-08-20T19:12:11.135Z,1
2022-08-20T19:13:24.493Z,0
2022-08-20T19:14:38.784Z,0
2022-08-20T19:15:53.187Z,0
2022-08-20T19:17:07.507Z,0
2022-08-20T19:18:21.824Z,0
2022-08-20T19:19:36.134Z,0
2022-08-20T19:20:50.422Z,0
2022-08-20T19:22:04.844Z,0
2022-08-20T19:23:19.155Z,0
2022-08-20T19:24:33.471Z,0
2022-08-20T19:25:47.795Z,0
2022-08-20T19:27:02.082Z,0
2022-08-20T19:28:16.489Z,0
2022-08-20T19:29:30.798Z,0
2022-08-20T19:30:45.119Z,0
2022-08-20T19:31:59.448Z,0
2022-08-20T19:33:13.732Z,0
2022-08-20T19:34:28.146Z,0
2022-08-20T19:35:42.451Z,0
2022-08-20T19:36:56.765Z,0
2022-08-20T19:38:11.083Z,0
2022-08-20T19:39:25.375Z,0
2022-08-20T19:40:39.784Z,0
2022-08-20T19:41:54.113Z,0
2022-08-20T19:43:08.434Z,0
2022-08-20T19:44:22.795Z,0
2022-08-20T19:45:36.204Z,0
2022-08-20T19:46:50.538Z,0
2022-08-20T19:48:03.890Z,0
2022-08-20T19:49:18.165Z,0
2022-08-20T19:50:32.589Z,0
2022-08-20T19:51:46.898Z,0
2022-08-20T19:53:01.219Z,0
2022-08-20T19:54:15.536Z,0
2022-08-20T19:55:29.815Z,0
2022-08-20T19:56:44.247Z,0
2022-08-20T19:57:58.558Z,0
2022-08-20T19:59:12.879Z,0
2022-08-20T20:00:27.188Z,0
2022-08-20T20:01:41.471Z,0
2022-08-20T20:02:55.887Z,0
2022-08-20T20:04:10.197Z,0
2022-08-20T20:05:24.525Z,0
2022-08-20T20:06:38.837Z,0
2022-08-20T20:07:53.125Z,0
2022-08-20T20:09:07.544Z,0
2022-08-20T20:10:21.852Z,0
2022-08-20T20:11:36.174Z,0
2022-08-20T20:12:50.480Z,0
2022-08-20T20:14:04.773Z,0
2022-08-20T20:15:19.185Z,0
2022-08-20T20:16:33.509Z,0
2022-08-20T20:17:47.812Z,0
2022-08-20T20:19:02.199Z,0
2022-08-20T20:20:15.549Z,0
2022-08-20T20:21:29.877Z,0
2022-08-20T20:22:44.191Z,0
2022-08-20T20:23:58.502Z,0
2022-08-20T20:25:12.780Z,0
2022-08-20T20:26:27.204Z,0
2022-08-20T20:28:55.832Z,0
2022-08-20T20:30:10.148Z,0
2022-08-20T20:31:24.432Z,0
2022-08-20T20:32:38.852Z,0
2022-08-20T20:33:53.174Z,0
2022-08-20T20:35:07.487Z,0
2022-08-20T20:36:21.800Z,0
2022-08-20T20:37:36.081Z,0
2022-08-20T20:38:50.511Z,0
2022-08-20T20:40:04.815Z,0
2022-08-20T20:41:19.143Z,0
2022-08-20T20:42:33.452Z,0
2022-08-20T20:43:47.742Z,0
2022-08-20T20:45:02.148Z,0
2022-08-20T20:46:16.464Z,0
2022-08-20T20:47:30.794Z,0
2022-08-20T20:48:45.113Z,0
2022-08-20T20:49:59.387Z,0
2022-08-20T20:51:13.855Z,0
2022-08-20T20:52:28.211Z,0
2022-08-20T20:53:41.585Z,0
2022-08-20T20:54:54.949Z,0
2022-08-20T20:56:09.261Z,0
2022-08-20T20:57:23.584Z,0
2022-08-20T20:58:37.906Z,0
2022-08-20T20:59:52.192Z,0
2022-08-20T21:01:06.600Z,0
2022-08-20T21:02:20.907Z,0
2022-08-20T21:03:35.228Z,0
2022-08-20T21:04:49.558Z,0
2022-08-20T21:06:03.833Z,0
2022-08-20T21:07:18.251Z,0
2022-08-20T21:08:32.555Z,0
2022-08-20T21:09:46.885Z,0
2022-08-20T21:11:01.204Z,0
2022-08-20T21:12:15.486Z,0
2022-08-20T21:13:29.886Z,0
2022-08-20T21:14:44.221Z,0
2022-08-20T21:15:58.539Z,0
2022-08-20T21:17:12.847Z,0
2022-08-20T21:18:27.136Z,0
2022-08-20T21:19:41.543Z,0
2022-08-20T21:20:55.865Z,0
2022-08-20T21:22:10.172Z,0
2022-08-20T21:23:24.507Z,0
2022-08-20T21:24:38.776Z,0
2022-08-20T21:25:53.257Z,0
2022-08-20T21:27:07.597Z,0
2022-08-20T21:28:20.954Z,0
2022-08-20T21:29:35.240Z,0
2022-08-20T21:30:49.641Z,0
2022-08-20T21:32:03.967Z,0
2022-08-20T21:33:18.268Z,0
2022-08-20T21:34:32.599Z,0
2022-08-20T21:35:46.874Z,0
2022-08-20T21:37:01.298Z,0
2022-08-20T21:38:15.620Z,0
2022-08-20T21:39:29.918Z,0
2022-08-20T21:40:44.243Z,0
2022-08-20T21:41:58.526Z,0
2022-08-20T21:43:12.947Z,0
2022-08-20T21:44:27.255Z,0
2022-08-20T21:45:41.570Z,0
2022-08-20T21:46:55.905Z,0
2022-08-20T21:48:10.183Z,0
2022-08-20T21:49:24.592Z,0
2022-08-20T21:50:38.910Z,0
2022-08-20T21:51:53.216Z,0
2022-08-20T21:53:07.545Z,0
2022-08-20T21:54:21.836Z,0
2022-08-20T21:55:36.239Z,0
2022-08-20T21:56:50.554Z,0
2022-08-20T21:58:04.881Z,0
2022-08-20T21:59:19.252Z,0
2022-08-20T22:00:32.674Z,0
2022-08-20T22:01:47.005Z,0
2022-08-20T22:03:00.353Z,0
2022-08-20T22:04:14.654Z,0
2022-08-20T22:05:29.061Z,0
2022-08-20T22:06:43.369Z,0
2022-08-20T22:07:57.692Z,0
2022-08-20T22:09:12.020Z,0
2022-08-20T22:10:26.290Z,0
2022-08-20T22:11:40.706Z,0
2022-08-20T22:12:55.022Z,0
2022-08-20T22:14:09.334Z,0
2022-08-20T22:15:23.662Z,0
2022-08-20T22:16:37.939Z,0
2022-08-20T22:17:52.346Z,0
2022-08-20T22:19:06.676Z,0
2022-08-20T22:20:20.998Z,0
2022-08-20T22:21:35.311Z,0
2022-08-20T22:22:49.590Z,0
2022-08-20T22:24:03.998Z,0
2022-08-20T22:25:18.330Z,0
2022-08-20T22:26:32.633Z,0
2022-08-20T22:27:46.956Z,0
2022-08-20T22:29:01.247Z,0
2022-08-20T22:30:15.653Z,0
2022-08-20T22:31:29.982Z,0
2022-08-20T22:32:44.281Z,0
2022-08-20T22:33:58.672Z,0
2022-08-20T22:35:12.050Z,0
2022-08-20T22:36:26.397Z,0
2022-08-20T22:37:39.765Z,0
2022-08-20T22:38:54.035Z,0
2022-08-20T22:40:08.440Z,0
2022-08-20T22:41:22.766Z,0
2022-08-20T22:42:37.091Z,0
2022-08-20T22:43:51.000Z,0
2022-08-20T22:45:05.679Z,0
2022-08-20T22:46:20.091Z,0
2022-08-20T22:47:34.420Z,0
2022-08-20T22:48:48.735Z,0
2022-08-20T22:50:03.050Z,0
2022-08-20T22:51:17.332Z,0
2022-08-20T22:52:31.749Z,0
2022-08-20T22:53:46.069Z,0
2022-08-20T22:55:00.384Z,0
2022-08-20T22:56:14.712Z,0
2022-08-20T22:57:28.980Z,0
2022-08-20T22:58:43.398Z,0
2022-08-20T22:59:57.727Z,0
2022-08-20T23:01:12.026Z,0
2022-08-20T23:02:26.353Z,0
2022-08-20T23:03:40.647Z,0
2022-08-20T23:04:55.054Z,0
2022-08-20T23:06:09.365Z,0
2022-08-20T23:07:23.688Z,0
2022-08-20T23:08:38.056Z,0
2022-08-20T23:09:51.414Z,0
2022-08-20T23:11:05.741Z,0
2022-08-20T23:12:20.000Z,0
2022-08-20T23:13:34.370Z,0
2022-08-20T23:14:48.647Z,0
2022-08-20T23:16:03.060Z,0
2022-08-20T23:17:17.388Z,0
2022-08-20T23:18:31.697Z,0
2022-08-20T23:19:46.030Z,0
2022-08-20T23:21:00.312Z,0
2022-08-20T23:22:14.728Z,0
2022-08-20T23:23:29.035Z,0
2022-08-20T23:24:43.345Z,0
2022-08-20T23:25:57.668Z,0
2022-08-20T23:27:11.963Z,0
2022-08-20T23:28:26.358Z,0
2022-08-20T23:29:40.694Z,0
2022-08-20T23:32:09.199Z,0
2022-08-20T23:33:23.484Z,0
2022-08-20T23:34:37.899Z,0
2022-08-20T23:35:52.210Z,0
2022-08-20T23:37:06.517Z,0
2022-08-20T23:38:20.839Z,0
2022-08-20T23:39:35.126Z,0
2022-08-20T23:40:49.602Z,0
2022-08-20T23:42:03.953Z,0
2022-08-20T23:43:17.304Z,0
2022-08-20T23:44:30.604Z,0
2022-08-20T23:45:44.927Z,0
2022-08-20T23:46:59.244Z,0
2022-08-20T23:48:13.555Z,0
2022-08-20T23:49:27.841Z,0
2022-08-20T23:50:42.243Z,0
2022-08-20T23:51:56.576Z,0
2022-08-20T23:53:10.895Z,0
2022-08-20T23:54:25.208Z,0
2022-08-20T23:55:39.486Z,0
2022-08-20T23:56:53.911Z,0
2022-08-20T23:58:08.223Z,0
2022-08-20T23:59:22.546Z,0
